Time;durP1;ratioP1;P1;durP2;ratioP2;P2;SDS_P1;SDS_P2;PMS_P1;PMS_P2;Temp;Humidity;BMP_temperature;BMP_pressure;BME280_temperature;BME280_humidity;BME280_pressure;Samples;Min_cycle;Max_cycle;Signal;HPM_P1;HPM_P2
2023/11/19 00:04:44;;;;;;;32.58;20.30;;;;;;;;;;10508927;28;20398;-91
2023/11/19 00:09:48;;;;;;;24.75;15.82;;;;;;;;;;10505760;28;20425;-91
2023/11/19 00:14:50;;;;;;;24.90;15.40;;;;;;;;;;10543540;28;20443;-91
2023/11/19 00:19:53;;;;;;;24.58;15.18;;;;;;;;;;10543257;28;20494;-91
2023/11/19 00:24:57;;;;;;;27.60;14.88;;;;;;;;;;10547368;28;20434;-90
2023/11/19 00:29:59;;;;;;;23.17;14.10;;;;;;;;;;10551310;28;20451;-92
2023/11/19 00:35:02;;;;;;;20.50;12.90;;;;;;;;;;10544768;28;21053;-91
2023/11/19 00:40:10;;;;;;;23.63;12.75;;;;;;;;;;10551791;28;20460;-91
2023/11/19 00:45:12;;;;;;;17.25;11.38;;;;;;;;;;10520063;28;20437;-92
2023/11/19 00:50:15;;;;;;;16.17;11.13;;;;;;;;;;10534735;28;20990;-90
2023/11/19 00:55:19;;;;;;;17.85;11.20;;;;;;;;;;10549998;28;20436;-91
2023/11/19 01:00:24;;;;;;;15.82;10.98;;;;;;;;;;10536513;28;20445;-90
2023/11/19 01:05:26;;;;;;;16.60;10.87;;;;;;;;;;10534926;28;20450;-91
2023/11/19 01:10:30;;;;;;;16.75;10.95;;;;;;;;;;10502574;28;20897;-91
2023/11/19 01:15:32;;;;;;;15.60;9.85;;;;;;;;;;10539157;28;20402;-91
2023/11/19 01:20:35;;;;;;;15.57;10.35;;;;;;;;;;10532626;28;20420;-91
2023/11/19 01:25:38;;;;;;;14.98;9.00;;;;;;;;;;10529145;28;20409;-91
2023/11/19 01:30:41;;;;;;;15.00;9.67;;;;;;;;;;10530712;28;20514;-91
2023/11/19 01:35:43;;;;;;;14.10;9.15;;;;;;;;;;10542050;28;20402;-92
2023/11/19 01:40:47;;;;;;;12.38;8.30;;;;;;;;;;10531705;28;20465;-91
2023/11/19 01:45:50;;;;;;;13.20;7.50;;;;;;;;;;10521061;28;20463;-92
2023/11/19 01:50:53;;;;;;;11.20;7.38;;;;;;;;;;10511806;28;21259;-92
2023/11/19 01:55:58;;;;;;;9.15;6.80;;;;;;;;;;10540057;28;20416;-92
2023/11/19 02:01:00;;;;;;;10.55;7.35;;;;;;;;;;10536697;28;20507;-92
2023/11/19 02:06:03;;;;;;;11.40;6.87;;;;;;;;;;10517259;28;20413;-92
2023/11/19 02:11:08;;;;;;;11.33;7.47;;;;;;;;;;10558266;28;20418;-92
2023/11/19 02:16:11;;;;;;;11.48;7.55;;;;;;;;;;10501130;28;20452;-92
2023/11/19 02:21:14;;;;;;;13.55;8.32;;;;;;;;;;10561762;28;20501;-91
2023/11/19 02:26:25;;;;;;;13.37;8.53;;;;;;;;;;10554749;28;20423;-92
2023/11/19 02:31:28;;;;;;;16.27;9.03;;;;;;;;;;10557905;28;20444;-92
2023/11/19 02:36:31;;;;;;;17.13;9.05;;;;;;;;;;10575027;28;20772;-91
2023/11/19 02:41:34;;;;;;;14.02;8.57;;;;;;;;;;10528924;28;20386;-89
2023/11/19 02:46:38;;;;;;;13.25;8.88;;;;;;;;;;10519281;28;20457;-91
2023/11/19 02:51:40;;;;;;;15.13;8.30;;;;;;;;;;10542029;28;20522;-91
2023/11/19 02:56:43;;;;;;;11.47;7.90;;;;;;;;;;10540406;28;20514;-91
2023/11/19 03:01:50;;;;;;;12.87;7.90;;;;;;;;;;10536330;28;20444;-91
2023/11/19 03:06:53;;;;;;;11.40;7.90;;;;;;;;;;10540712;28;20547;-91
2023/11/19 03:11:55;;;;;;;12.50;7.40;;;;;;;;;;10563427;28;20450;-91
2023/11/19 03:16:59;;;;;;;12.95;7.82;;;;;;;;;;10545487;28;20446;-91
2023/11/19 03:22:02;;;;;;;13.45;7.55;;;;;;;;;;10522002;28;20473;-91
2023/11/19 03:27:05;;;;;;;12.70;7.30;;;;;;;;;;10532966;28;20403;-91
2023/11/19 03:32:09;;;;;;;11.55;7.13;;;;;;;;;;10574904;28;20452;-91
2023/11/19 03:37:12;;;;;;;12.25;7.68;;;;;;;;;;10517916;28;20400;-91
2023/11/19 03:42:14;;;;;;;10.82;7.10;;;;;;;;;;10550789;28;20450;-91
2023/11/19 03:47:18;;;;;;;10.40;7.22;;;;;;;;;;10517486;28;20406;-91
2023/11/19 03:52:21;;;;;;;11.17;7.07;;;;;;;;;;10533239;28;20513;-91
2023/11/19 03:57:23;;;;;;;11.07;7.10;;;;;;;;;;10528389;28;20410;-91
2023/11/19 04:02:28;;;;;;;10.90;6.88;;;;;;;;;;10524768;28;20440;-91
2023/11/19 04:07:31;;;;;;;10.40;7.05;;;;;;;;;;10548898;28;20416;-91
2023/11/19 04:12:33;;;;;;;10.80;7.35;;;;;;;;;;10537242;28;20787;-92
2023/11/19 04:17:37;;;;;;;13.73;7.47;;;;;;;;;;10529156;28;20407;-91
2023/11/19 04:22:40;;;;;;;9.93;6.75;;;;;;;;;;10528991;28;20450;-91
2023/11/19 04:27:42;;;;;;;11.33;7.33;;;;;;;;;;10512925;28;20504;-91
2023/11/19 04:32:46;;;;;;;9.93;6.60;;;;;;;;;;10501626;28;20412;-92
2023/11/19 04:37:48;;;;;;;10.03;7.03;;;;;;;;;;10511810;28;20468;-91
2023/11/19 04:42:50;;;;;;;12.95;7.53;;;;;;;;;;10532479;28;20446;-91
2023/11/19 04:47:54;;;;;;;9.32;6.85;;;;;;;;;;10530403;28;20403;-92
2023/11/19 04:52:56;;;;;;;9.48;6.43;;;;;;;;;;10514241;28;20453;-91
2023/11/19 04:57:59;;;;;;;10.52;6.78;;;;;;;;;;10517844;28;20419;-91
2023/11/19 05:03:03;;;;;;;9.40;6.70;;;;;;;;;;10530028;28;20412;-92
2023/11/19 05:08:06;;;;;;;11.80;7.07;;;;;;;;;;10521584;28;20508;-91
2023/11/19 05:13:08;;;;;;;10.25;7.03;;;;;;;;;;10517060;28;20466;-91
2023/11/19 05:18:12;;;;;;;9.20;6.20;;;;;;;;;;10516656;28;20410;-92
2023/11/19 05:23:14;;;;;;;10.77;7.10;;;;;;;;;;10519390;28;20398;-91
2023/11/19 05:28:17;;;;;;;9.85;7.07;;;;;;;;;;10525682;28;20404;-91
2023/11/19 05:33:20;;;;;;;10.07;7.17;;;;;;;;;;10522194;28;20424;-92
2023/11/19 05:38:23;;;;;;;11.40;6.40;;;;;;;;;;10520670;28;20508;-91
2023/11/19 05:43:25;;;;;;;9.23;6.33;;;;;;;;;;10513330;28;20435;-91
2023/11/19 05:48:29;;;;;;;10.15;6.65;;;;;;;;;;10516637;28;20438;-92
2023/11/19 05:53:31;;;;;;;10.50;7.03;;;;;;;;;;10506144;28;20478;-90
2023/11/19 05:58:34;;;;;;;9.10;6.22;;;;;;;;;;10517438;28;20951;-91
2023/11/19 06:03:38;;;;;;;10.85;6.38;;;;;;;;;;10538107;28;20448;-91
2023/11/19 06:08:40;;;;;;;10.73;6.40;;;;;;;;;;10525960;28;20447;-91
2023/11/19 06:13:43;;;;;;;9.70;6.43;;;;;;;;;;10523626;28;20470;-91
2023/11/19 06:18:47;;;;;;;10.00;6.07;;;;;;;;;;10531043;28;20442;-91
2023/11/19 06:23:51;;;;;;;10.07;6.60;;;;;;;;;;10528434;28;20438;-92
2023/11/19 06:28:54;;;;;;;9.50;6.20;;;;;;;;;;10514041;28;20991;-91
2023/11/19 06:33:58;;;;;;;9.48;6.28;;;;;;;;;;10524836;28;20424;-91
2023/11/19 06:39:00;;;;;;;9.98;6.47;;;;;;;;;;10500721;28;20450;-91
2023/11/19 06:44:02;;;;;;;10.25;5.97;;;;;;;;;;10511157;28;20482;-92
2023/11/19 06:49:07;;;;;;;11.48;6.80;;;;;;;;;;10536881;28;20440;-91
2023/11/19 06:54:09;;;;;;;8.80;6.75;;;;;;;;;;10543304;28;20463;-91
2023/11/19 06:59:11;;;;;;;11.13;6.75;;;;;;;;;;10531430;28;20400;-91
2023/11/19 07:04:15;;;;;;;11.77;6.68;;;;;;;;;;10519616;28;20489;-91
2023/11/19 07:09:18;;;;;;;10.98;6.10;;;;;;;;;;10517135;28;20474;-91
2023/11/19 07:14:21;;;;;;;8.70;6.22;;;;;;;;;;10523349;28;20456;-91
2023/11/19 07:19:24;;;;;;;12.20;6.57;;;;;;;;;;10525675;28;20394;-90
2023/11/19 07:24:28;;;;;;;9.73;6.30;;;;;;;;;;10531959;28;20890;-90
2023/11/19 07:29:31;;;;;;;9.75;6.30;;;;;;;;;;10525308;28;20493;-91
2023/11/19 07:34:35;;;;;;;9.70;6.47;;;;;;;;;;10531750;28;20433;-91
2023/11/19 07:39:40;;;;;;;9.95;6.03;;;;;;;;;;10507618;28;20465;-91
2023/11/19 07:44:44;;;;;;;10.10;5.67;;;;;;;;;;10532377;28;20877;-90
2023/11/19 07:49:47;;;;;;;9.40;5.90;;;;;;;;;;10523492;28;20947;-91
2023/11/19 07:54:50;;;;;;;8.57;5.97;;;;;;;;;;10546053;28;20408;-91
2023/11/19 07:59:53;;;;;;;9.43;5.82;;;;;;;;;;10520056;28;20436;-91
2023/11/19 08:04:57;;;;;;;10.38;6.38;;;;;;;;;;10537993;28;20402;-91
2023/11/19 08:10:00;;;;;;;10.38;6.35;;;;;;;;;;10529573;28;20460;-92
2023/11/19 08:15:02;;;;;;;11.32;6.88;;;;;;;;;;10526706;28;20466;-91
2023/11/19 08:20:10;;;;;;;11.25;6.85;;;;;;;;;;10518027;28;20404;-92
2023/11/19 08:25:12;;;;;;;19.77;11.68;;;;;;;;;;10500977;28;20406;-92
2023/11/19 08:30:15;;;;;;;10.00;6.93;;;;;;;;;;10522234;28;20425;-92
2023/11/19 08:35:19;;;;;;;10.70;6.80;;;;;;;;;;10528110;28;20398;-90
2023/11/19 08:40:22;;;;;;;12.63;7.70;;;;;;;;;;10527855;28;20433;-91
2023/11/19 08:45:24;;;;;;;13.15;7.18;;;;;;;;;;10543246;28;20404;-91
2023/11/19 08:50:28;;;;;;;12.97;7.97;;;;;;;;;;10524671;28;20832;-88
2023/11/19 08:55:31;;;;;;;13.13;8.18;;;;;;;;;;10528316;28;20461;-88
2023/11/19 09:00:33;;;;;;;13.20;8.18;;;;;;;;;;10502747;28;20816;-89
2023/11/19 09:05:38;;;;;;;11.45;7.13;;;;;;;;;;10507176;28;20410;-88
2023/11/19 09:10:40;;;;;;;10.83;6.30;;;;;;;;;;10500584;28;20836;-88
2023/11/19 09:15:43;;;;;;;10.18;6.35;;;;;;;;;;10492138;23;20489;-88
2023/11/19 09:20:47;;;;;;;10.93;6.78;;;;;;;;;;10473773;28;20406;-87
2023/11/19 09:25:49;;;;;;;13.25;7.22;;;;;;;;;;10473321;28;20949;-88
2023/11/19 09:30:51;;;;;;;10.23;6.25;;;;;;;;;;10459454;28;20447;-87
2023/11/19 09:35:55;;;;;;;11.13;7.15;;;;;;;;;;10478630;28;20406;-85
2023/11/19 09:41:01;;;;;;;11.07;6.53;;;;;;;;;;10468798;28;20403;-87
2023/11/19 09:46:07;;;;;;;11.70;7.33;;;;;;;;;;10460646;28;20388;-87
2023/11/19 09:51:11;;;;;;;11.38;7.07;;;;;;;;;;10464831;28;20444;-85
2023/11/19 09:56:14;;;;;;;9.02;6.18;;;;;;;;;;10459707;28;20463;-88
2023/11/19 10:01:16;;;;;;;10.95;6.40;;;;;;;;;;10493784;28;20424;-95
2023/11/19 10:06:20;;;;;;;10.15;6.20;;;;;;;;;;10487932;28;20402;-92
2023/11/19 10:11:22;;;;;;;8.95;5.47;;;;;;;;;;10474026;28;20423;-96
2023/11/19 10:16:31;;;;;;;7.07;4.78;;;;;;;;;;10486863;28;20436;-93
2023/11/19 10:21:35;;;;;;;8.15;5.28;;;;;;;;;;10468187;28;20454;-95
2023/11/19 10:26:38;;;;;;;6.70;3.95;;;;;;;;;;10474420;28;20412;-93
2023/11/19 10:31:40;;;;;;;10.45;6.90;;;;;;;;;;10481139;28;20415;-93
2023/11/19 10:36:44;;;;;;;11.98;7.53;;;;;;;;;;10481598;28;20409;-92
2023/11/19 10:41:47;;;;;;;9.98;5.95;;;;;;;;;;10483109;28;20425;-94
2023/11/19 10:46:50;;;;;;;9.73;6.20;;;;;;;;;;10501758;28;20403;-92
2023/11/19 10:51:57;;;;;;;9.63;6.15;;;;;;;;;;10490909;28;20438;-95
2023/11/19 10:57:00;;;;;;;9.10;5.70;;;;;;;;;;10483380;28;20434;-94
2023/11/19 11:02:08;;;;;;;8.43;4.80;;;;;;;;;;10477535;28;20499;-94
2023/11/19 11:07:12;;;;;;;7.70;4.20;;;;;;;;;;10507724;28;20488;-94
2023/11/19 11:12:16;;;;;;;9.30;4.70;;;;;;;;;;10492913;28;20406;-92
2023/11/19 11:17:19;;;;;;;11.65;7.75;;;;;;;;;;10454345;28;20411;-94
2023/11/19 11:22:24;;;;;;;8.48;5.38;;;;;;;;;;10449575;28;20413;-93
2023/11/19 11:27:58;;;;;;;8.75;5.70;;;;;;;;;;10434624;28;20474;-94
2023/11/19 11:33:16;;;;;;;10.07;7.18;;;;;;;;;;10414882;28;20455;-93
2023/11/19 11:38:24;;;;;;;12.93;9.10;;;;;;;;;;10439428;28;20451;-95
2023/11/19 11:43:46;;;;;;;9.70;6.47;;;;;;;;;;10441683;28;20410;-92
2023/11/19 11:48:49;;;;;;;11.48;6.40;;;;;;;;;;10451859;28;20955;-94
2023/11/19 11:53:54;;;;;;;9.07;6.18;;;;;;;;;;10424329;28;20449;-94
2023/11/19 11:58:56;;;;;;;11.03;6.73;;;;;;;;;;10435874;28;20513;-94
2023/11/19 12:03:59;;;;;;;11.77;7.47;;;;;;;;;;10451082;28;20401;-92
2023/11/19 12:09:03;;;;;;;13.68;6.85;;;;;;;;;;10457043;28;20420;-93
2023/11/19 12:14:06;;;;;;;10.02;6.43;;;;;;;;;;10434453;28;20417;-92
2023/11/19 12:19:09;;;;;;;13.80;7.88;;;;;;;;;;10430823;28;20964;-91
2023/11/19 12:24:14;;;;;;;14.88;8.38;;;;;;;;;;10431352;28;20439;-91
2023/11/19 12:29:17;;;;;;;9.87;6.77;;;;;;;;;;10420921;28;20474;-90
2023/11/19 12:34:22;;;;;;;11.03;6.73;;;;;;;;;;10429437;28;20453;-94
2023/11/19 12:39:30;;;;;;;12.00;6.47;;;;;;;;;;10434634;28;20473;-92
2023/11/19 12:44:34;;;;;;;12.25;6.75;;;;;;;;;;10416486;28;20474;-92
2023/11/19 12:49:36;;;;;;;10.20;6.67;;;;;;;;;;10423561;28;20461;-92
2023/11/19 12:54:40;;;;;;;13.17;7.23;;;;;;;;;;10428197;28;20512;-93
2023/11/19 12:59:42;;;;;;;11.45;6.53;;;;;;;;;;10428930;28;20437;-92
2023/11/19 13:04:46;;;;;;;12.50;7.10;;;;;;;;;;10419258;28;20854;-92
2023/11/19 13:09:50;;;;;;;12.63;7.20;;;;;;;;;;10427899;28;20401;-92
2023/11/19 13:14:53;;;;;;;10.85;6.80;;;;;;;;;;10429018;28;20465;-93
2023/11/19 13:19:56;;;;;;;10.97;7.30;;;;;;;;;;10422480;28;20401;-91
2023/11/19 13:25:00;;;;;;;12.60;7.70;;;;;;;;;;10452547;28;20510;-93
2023/11/19 13:30:06;;;;;;;12.00;7.05;;;;;;;;;;10439605;28;20397;-91
2023/11/19 13:35:09;;;;;;;12.87;8.00;;;;;;;;;;10441522;28;20425;-92
2023/11/19 13:40:15;;;;;;;13.00;8.45;;;;;;;;;;10445164;28;20414;-90
2023/11/19 13:45:18;;;;;;;13.40;8.07;;;;;;;;;;10431368;28;20436;-91
2023/11/19 13:50:22;;;;;;;13.17;8.27;;;;;;;;;;10429860;28;20430;-91
2023/11/19 13:55:27;;;;;;;13.88;8.40;;;;;;;;;;10434487;28;20477;-91
2023/11/19 14:00:29;;;;;;;13.02;8.38;;;;;;;;;;10449247;28;20442;-92
2023/11/19 14:05:31;;;;;;;13.93;8.20;;;;;;;;;;10428539;28;20508;-92
2023/11/19 14:10:36;;;;;;;13.02;7.70;;;;;;;;;;10442002;28;20415;-92
2023/11/19 14:15:38;;;;;;;14.15;8.50;;;;;;;;;;10460141;28;21103;-91
2023/11/19 14:20:41;;;;;;;19.23;9.40;;;;;;;;;;10482121;28;20442;-92
2023/11/19 14:25:45;;;;;;;14.75;8.63;;;;;;;;;;10475382;28;20410;-88
2023/11/19 14:30:53;;;;;;;13.63;8.37;;;;;;;;;;10481806;28;20465;-88
2023/11/19 14:35:55;;;;;;;13.83;8.33;;;;;;;;;;10465828;28;20855;-88
2023/11/19 14:41:00;;;;;;;14.45;8.35;;;;;;;;;;10463388;28;20889;-90
2023/11/19 14:46:03;;;;;;;38.55;12.23;;;;;;;;;;10475767;28;20826;-86
2023/11/19 14:51:06;;;;;;;21.63;9.90;;;;;;;;;;10466136;28;20827;-87
2023/11/19 14:56:13;;;;;;;37.23;17.60;;;;;;;;;;10444410;28;20513;-86
2023/11/19 15:01:16;;;;;;;16.88;9.20;;;;;;;;;;10458491;28;20482;-88
2023/11/19 15:06:18;;;;;;;18.73;9.45;;;;;;;;;;10452880;28;20469;-88
2023/11/19 15:11:24;;;;;;;17.20;9.90;;;;;;;;;;10464729;28;20419;-88
2023/11/19 15:16:31;;;;;;;16.23;8.85;;;;;;;;;;10450485;28;21339;-88
2023/11/19 15:21:33;;;;;;;14.50;8.27;;;;;;;;;;10471464;28;20994;-87
2023/11/19 15:26:37;;;;;;;13.83;7.80;;;;;;;;;;10472427;28;20529;-88
2023/11/19 15:31:40;;;;;;;15.32;8.32;;;;;;;;;;10472593;28;20414;-87
2023/11/19 15:36:42;;;;;;;16.80;9.23;;;;;;;;;;10459415;28;20458;-88
2023/11/19 15:41:46;;;;;;;15.53;8.37;;;;;;;;;;10476067;28;20453;-88
2023/11/19 15:46:49;;;;;;;17.50;10.13;;;;;;;;;;10471090;28;20828;-87
2023/11/19 15:51:51;;;;;;;29.45;15.95;;;;;;;;;;10472603;28;20409;-87
2023/11/19 15:56:55;;;;;;;25.87;14.57;;;;;;;;;;10474326;28;20423;-89
2023/11/19 16:01:58;;;;;;;24.98;14.88;;;;;;;;;;10460341;28;20408;-87
2023/11/19 16:07:02;;;;;;;23.83;12.68;;;;;;;;;;10465742;28;20439;-86
2023/11/19 16:12:08;;;;;;;22.40;13.32;;;;;;;;;;10467414;28;20434;-87
2023/11/19 16:17:10;;;;;;;28.58;14.45;;;;;;;;;;10485611;28;20861;-88
2023/11/19 16:22:13;;;;;;;26.13;14.52;;;;;;;;;;10479925;28;20840;-87
2023/11/19 16:27:17;;;;;;;27.13;14.23;;;;;;;;;;10467419;28;20423;-88
2023/11/19 16:32:19;;;;;;;32.55;19.00;;;;;;;;;;10469750;28;20398;-87
2023/11/19 16:37:22;;;;;;;38.10;19.88;;;;;;;;;;10476655;28;20838;-88
2023/11/19 16:42:25;;;;;;;26.17;16.20;;;;;;;;;;10463855;28;21170;-87
2023/11/19 16:47:28;;;;;;;31.35;17.05;;;;;;;;;;10474954;28;20448;-87
2023/11/19 16:52:31;;;;;;;28.95;16.83;;;;;;;;;;10468674;28;20412;-88
2023/11/19 16:57:35;;;;;;;29.73;17.00;;;;;;;;;;10476348;28;20763;-88
2023/11/19 17:02:41;;;;;;;34.47;19.52;;;;;;;;;;10471745;28;20440;-88
2023/11/19 17:07:44;;;;;;;43.15;23.88;;;;;;;;;;10469098;28;20402;-87
2023/11/19 17:12:48;;;;;;;45.28;26.35;;;;;;;;;;10481397;28;20415;-87
2023/11/19 17:17:50;;;;;;;41.15;23.70;;;;;;;;;;10466548;28;20965;-88
2023/11/19 17:22:54;;;;;;;44.85;23.60;;;;;;;;;;10470985;28;20477;-88
2023/11/19 17:27:58;;;;;;;47.97;24.77;;;;;;;;;;10477015;28;20448;-87
2023/11/19 17:33:00;;;;;;;52.03;28.83;;;;;;;;;;10478192;28;20495;-88
2023/11/19 17:38:03;;;;;;;43.60;23.60;;;;;;;;;;10468502;28;20412;-88
2023/11/19 17:43:08;;;;;;;60.63;37.42;;;;;;;;;;10477125;28;20423;-88
2023/11/19 17:48:10;;;;;;;49.53;28.37;;;;;;;;;;10467546;28;20418;-88
2023/11/19 17:53:13;;;;;;;44.05;23.85;;;;;;;;;;10454650;28;20923;-87
2023/11/19 17:58:17;;;;;;;39.50;22.33;;;;;;;;;;10478356;28;20956;-88
2023/11/19 18:03:19;;;;;;;35.60;20.90;;;;;;;;;;10475771;28;20902;-87
2023/11/19 18:08:22;;;;;;;34.97;21.17;;;;;;;;;;10479256;28;20461;-87
2023/11/19 18:13:26;;;;;;;35.65;20.48;;;;;;;;;;10465122;28;20894;-88
2023/11/19 18:18:28;;;;;;;43.47;23.15;;;;;;;;;;10465099;28;20483;-88
2023/11/19 18:23:31;;;;;;;39.05;23.17;;;;;;;;;;10466880;28;20404;-87
2023/11/19 18:28:35;;;;;;;45.58;25.58;;;;;;;;;;10462453;28;20407;-87
2023/11/19 18:33:37;;;;;;;45.60;27.10;;;;;;;;;;10454292;28;20511;-88
2023/11/19 18:38:40;;;;;;;53.00;28.00;;;;;;;;;;10448006;28;20479;-88
2023/11/19 18:43:43;;;;;;;46.53;26.43;;;;;;;;;;10455577;28;20510;-89
2023/11/19 18:48:46;;;;;;;43.40;24.33;;;;;;;;;;10464115;28;20508;-89
2023/11/19 18:53:48;;;;;;;51.33;28.37;;;;;;;;;;10464774;28;20503;-90
2023/11/19 18:58:52;;;;;;;54.07;28.17;;;;;;;;;;10466260;28;20838;-88
2023/11/19 19:03:54;;;;;;;46.95;27.25;;;;;;;;;;10464119;28;20510;-89
2023/11/19 19:08:57;;;;;;;54.03;28.13;;;;;;;;;;10471620;28;20426;-90
2023/11/19 19:14:01;;;;;;;49.95;27.00;;;;;;;;;;10462733;28;20446;-91
2023/11/19 19:19:04;;;;;;;48.80;26.77;;;;;;;;;;10441764;28;20461;-91
2023/11/19 19:24:08;;;;;;;54.97;28.87;;;;;;;;;;10433736;28;20438;-93
2023/11/19 19:29:12;;;;;;;50.40;27.42;;;;;;;;;;10428502;28;21202;-92
2023/11/19 19:34:14;;;;;;;48.73;26.33;;;;;;;;;;10431337;28;20510;-91
2023/11/19 19:39:17;;;;;;;57.63;30.02;;;;;;;;;;10437503;28;20488;-92
2023/11/19 19:44:21;;;;;;;67.33;36.67;;;;;;;;;;10425898;28;20428;-90
2023/11/19 19:49:24;;;;;;;55.57;31.57;;;;;;;;;;10414806;28;20545;-90
2023/11/19 19:54:29;;;;;;;56.85;32.67;;;;;;;;;;10419429;28;21181;-92
2023/11/19 19:59:34;;;;;;;57.63;32.92;;;;;;;;;;10424858;28;20522;-92
2023/11/19 20:04:39;;;;;;;52.00;32.30;;;;;;;;;;10442962;28;20419;-93
2023/11/19 20:09:41;;;;;;;49.70;28.27;;;;;;;;;;10416212;28;20460;-93
2023/11/19 20:14:45;;;;;;;47.80;27.40;;;;;;;;;;10442318;28;20495;-93
2023/11/19 20:19:47;;;;;;;44.17;25.27;;;;;;;;;;10467604;28;20531;-91
2023/11/19 20:24:50;;;;;;;41.20;23.67;;;;;;;;;;10470467;28;20670;-93
2023/11/19 20:29:54;;;;;;;39.03;23.80;;;;;;;;;;10469943;28;20539;-92
2023/11/19 20:34:58;;;;;;;42.95;24.70;;;;;;;;;;10473910;28;20464;-93
2023/11/19 20:40:00;;;;;;;43.63;24.43;;;;;;;;;;10463251;28;20404;-92
2023/11/19 20:45:05;;;;;;;42.30;24.10;;;;;;;;;;10473172;28;20421;-93
2023/11/19 20:50:08;;;;;;;39.42;23.88;;;;;;;;;;10474117;28;20433;-92
2023/11/19 20:55:12;;;;;;;40.20;23.20;;;;;;;;;;10476951;28;20426;-90
2023/11/19 21:00:18;;;;;;;41.28;24.75;;;;;;;;;;10474654;28;20420;-92
2023/11/19 21:05:21;;;;;;;45.00;26.33;;;;;;;;;;10481484;28;20427;-93
2023/11/19 21:10:23;;;;;;;42.85;25.27;;;;;;;;;;10480052;28;20481;-93
2023/11/19 21:15:27;;;;;;;42.47;25.10;;;;;;;;;;10459905;28;20590;-93
2023/11/19 21:20:29;;;;;;;39.17;23.73;;;;;;;;;;10479480;28;20448;-93
2023/11/19 21:25:32;;;;;;;38.25;23.40;;;;;;;;;;10462631;28;20458;-93
2023/11/19 21:30:36;;;;;;;42.17;24.02;;;;;;;;;;10477526;28;20398;-94
2023/11/19 21:35:38;;;;;;;41.13;23.75;;;;;;;;;;10469867;28;20904;-93
2023/11/19 21:40:41;;;;;;;40.30;23.35;;;;;;;;;;10465037;28;20468;-91
2023/11/19 21:45:44;;;;;;;44.10;26.83;;;;;;;;;;10465119;28;20444;-93
2023/11/19 21:50:47;;;;;;;44.85;25.42;;;;;;;;;;10476246;28;20419;-93
2023/11/19 21:55:49;;;;;;;39.95;25.42;;;;;;;;;;10479955;28;20467;-93
2023/11/19 22:00:53;;;;;;;43.35;26.05;;;;;;;;;;10493298;28;20420;-93
2023/11/19 22:05:56;;;;;;;40.83;23.53;;;;;;;;;;10458862;28;20466;-93
2023/11/19 22:10:58;;;;;;;43.97;24.45;;;;;;;;;;10482357;28;20418;-93
2023/11/19 22:16:02;;;;;;;41.83;24.02;;;;;;;;;;10462850;28;20434;-93
2023/11/19 22:21:05;;;;;;;42.63;23.75;;;;;;;;;;10472560;28;20744;-94
2023/11/19 22:26:07;;;;;;;38.40;23.77;;;;;;;;;;10453893;28;20732;-94
2023/11/19 22:31:12;;;;;;;38.17;23.13;;;;;;;;;;10462133;28;20406;-93
2023/11/19 22:36:14;;;;;;;40.40;22.73;;;;;;;;;;10458753;28;20479;-93
2023/11/19 22:41:17;;;;;;;43.97;23.30;;;;;;;;;;10475061;28;20418;-93
2023/11/19 22:46:21;;;;;;;39.05;22.77;;;;;;;;;;10468715;28;20476;-93
2023/11/19 22:51:24;;;;;;;41.08;23.02;;;;;;;;;;10464210;28;20494;-92
2023/11/19 22:56:26;;;;;;;44.45;24.90;;;;;;;;;;10467708;28;20415;-92
2023/11/19 23:01:32;;;;;;;38.10;22.73;;;;;;;;;;10470929;28;20469;-93
2023/11/19 23:06:34;;;;;;;38.57;21.63;;;;;;;;;;10476501;28;20414;-94
2023/11/19 23:11:37;;;;;;;34.50;20.48;;;;;;;;;;10471087;28;20521;-93
2023/11/19 23:16:40;;;;;;;31.20;19.00;;;;;;;;;;10458344;28;20453;-94
2023/11/19 23:21:44;;;;;;;34.45;20.40;;;;;;;;;;10457983;28;20406;-93
2023/11/19 23:26:46;;;;;;;33.58;19.40;;;;;;;;;;10468892;28;20842;-93
2023/11/19 23:31:50;;;;;;;31.70;18.67;;;;;;;;;;10452641;28;20440;-93
2023/11/19 23:36:52;;;;;;;37.10;20.77;;;;;;;;;;10466379;28;20562;-93
2023/11/19 23:41:55;;;;;;;35.63;20.53;;;;;;;;;;10459167;28;20416;-93
2023/11/19 23:46:59;;;;;;;36.45;19.92;;;;;;;;;;10467082;28;20408;-92
2023/11/19 23:52:04;;;;;;;32.60;19.23;;;;;;;;;;10478140;28;20476;-89
2023/11/19 23:57:06;;;;;;;33.63;19.23;;;;;;;;;;10495747;28;21034;-93
